Time;durP1;ratioP1;P1;durP2;ratioP2;P2;SDS_P1;SDS_P2;PMS_P1;PMS_P2;Temp;Humidity;BMP_temperature;BMP_pressure;BME280_temperature;BME280_humidity;BME280_pressure;Samples;Min_cycle;Max_cycle;Signal;HPM_P1;HPM_P2
2022/12/31 00:00:06;;;;;;;;;;;;;;;9.45;100.00;100038.63;5066375;28;19930;-74
2022/12/31 00:02:32;;;;;;;;;;;;;;;9.46;100.00;100042.97;5053996;28;19935;-74
2022/12/31 00:04:57;;;;;;;;;;;;;;;9.45;100.00;100035.97;5066120;28;19947;-74
2022/12/31 00:07:22;;;;;;;;;;;;;;;9.45;100.00;100052.69;5052130;28;19945;-74
2022/12/31 00:09:48;;;;;;;;;;;;;;;9.46;100.00;100049.09;5065334;28;19981;-73
2022/12/31 00:12:13;;;;;;;;;;;;;;;9.47;100.00;100050.81;5064436;28;20015;-74
2022/12/31 00:14:39;;;;;;;;;;;;;;;9.51;100.00;100048.84;5082383;28;20054;-74
2022/12/31 00:17:04;;;;;;;;;;;;;;;9.57;100.00;100042.38;5083170;28;20054;-74
2022/12/31 00:19:29;;;;;;;;;;;;;;;9.56;100.00;100043.31;5065706;28;19924;-74
2022/12/31 00:21:55;;;;;;;;;;;;;;;9.57;100.00;100039.72;5065950;28;19976;-74
2022/12/31 00:24:20;;;;;;;;;;;;;;;9.60;100.00;100034.31;5083874;28;19928;-74
2022/12/31 00:26:45;;;;;;;;;;;;;;;9.59;100.00;100044.00;5083907;28;19964;-74
2022/12/31 00:29:11;;;;;;;;;;;;;;;9.61;100.00;100038.66;5083106;28;19932;-74
2022/12/31 00:31:37;;;;;;;;;;;;;;;9.61;100.00;100055.38;5083260;28;19981;-75
2022/12/31 00:34:03;;;;;;;;;;;;;;;9.60;100.00;100051.00;5083118;28;19932;-75
2022/12/31 00:36:29;;;;;;;;;;;;;;;9.61;100.00;100055.38;5084399;28;19924;-74
2022/12/31 00:38:55;;;;;;;;;;;;;;;9.60;100.00;100061.56;5083876;28;20505;-75
2022/12/31 00:41:21;;;;;;;;;;;;;;;9.61;100.00;100058.00;5048660;28;19934;-74
2022/12/31 00:43:47;;;;;;;;;;;;;;;9.62;100.00;100051.78;5082658;28;19932;-74
2022/12/31 00:46:12;;;;;;;;;;;;;;;9.63;100.00;100044.69;5084102;28;20030;-75
2022/12/31 00:48:38;;;;;;;;;;;;;;;9.61;100.00;100052.72;5053202;28;20294;-74
2022/12/31 00:51:05;;;;;;;;;;;;;;;9.59;100.00;100046.66;5082896;28;19924;-74
2022/12/31 00:53:31;;;;;;;;;;;;;;;9.57;100.00;100053.81;5083897;28;19932;-74
2022/12/31 00:56:00;;;;;;;;;;;;;;;9.57;100.00;100050.31;5064872;28;20007;-75
2022/12/31 00:58:26;;;;;;;;;;;;;;;9.53;100.00;100065.47;5048818;28;19941;-73
2022/12/31 01:00:51;;;;;;;;;;;;;;;9.50;100.00;100049.78;5082775;28;19923;-74
2022/12/31 01:03:16;;;;;;;;;;;;;;;9.49;100.00;100048.09;5084105;28;20427;-74
2022/12/31 01:05:42;;;;;;;;;;;;;;;9.48;100.00;100056.97;5082808;28;19963;-73
2022/12/31 01:08:07;;;;;;;;;;;;;;;9.45;100.00;100057.09;5064833;28;19925;-74
2022/12/31 01:13:17;;;;;;;;;;;;;;;9.40;100.00;100059.13;5065199;28;19950;-74
2022/12/31 01:15:42;;;;;;;;;;;;;;;9.40;100.00;100061.78;5048582;28;20374;-74
2022/12/31 01:18:08;;;;;;;;;;;;;;;9.40;100.00;100067.06;5057469;28;19932;-74
2022/12/31 01:20:37;;;;;;;;;;;;;;;9.37;100.00;100066.28;5068600;28;19981;-74
2022/12/31 01:23:03;;;;;;;;;;;;;;;9.34;100.00;100069.13;5051473;28;20441;-74
2022/12/31 01:25:28;;;;;;;;;;;;;;;9.33;100.00;100070.03;5085904;28;20026;-74
2022/12/31 01:27:54;;;;;;;;;;;;;;;9.31;100.00;100068.41;5085773;28;19927;-74
2022/12/31 01:30:19;;;;;;;;;;;;;;;9.29;100.00;100063.22;5069472;28;20054;-74
2022/12/31 01:32:44;;;;;;;;;;;;;;;9.30;100.00;100072.84;5067580;28;19931;-75
2022/12/31 01:35:10;;;;;;;;;;;;;;;9.30;100.00;100070.19;5056153;28;19942;-75
2022/12/31 01:37:35;;;;;;;;;;;;;;;9.30;100.00;100069.34;5085794;28;20409;-74
2022/12/31 01:40:00;;;;;;;;;;;;;;;9.29;100.00;100083.47;5086189;28;19920;-74
2022/12/31 01:42:26;;;;;;;;;;;;;;;9.24;100.00;100092.50;5068225;28;20298;-75
2022/12/31 01:44:53;;;;;;;;;;;;;;;9.21;100.00;100084.72;5086428;28;19962;-73
2022/12/31 01:47:21;;;;;;;;;;;;;;;9.17;100.00;100079.69;5068219;28;20656;-75
2022/12/31 01:49:51;;;;;;;;;;;;;;;9.14;100.00;100078.06;5068425;28;19928;-74
2022/12/31 01:52:20;;;;;;;;;;;;;;;9.10;100.00;100085.28;5086512;28;19962;-73
2022/12/31 01:54:50;;;;;;;;;;;;;;;9.07;100.00;100081.94;5066762;28;19976;-74
2022/12/31 01:57:15;;;;;;;;;;;;;;;9.05;100.00;100081.19;5067825;28;19935;-74
2022/12/31 01:59:41;;;;;;;;;;;;;;;9.02;100.00;100076.91;5067929;28;19928;-73
2022/12/31 02:02:06;;;;;;;;;;;;;;;9.01;100.00;100082.25;5067681;28;19934;-73
2022/12/31 02:04:32;;;;;;;;;;;;;;;8.98;100.00;100087.72;5085013;28;20413;-74
2022/12/31 02:06:59;;;;;;;;;;;;;;;8.95;100.00;100086.09;5055048;28;19998;-74
2022/12/31 02:09:24;;;;;;;;;;;;;;;8.94;100.00;100079.09;5085667;28;19923;-73
2022/12/31 02:11:50;;;;;;;;;;;;;;;8.93;100.00;100083.50;5066627;28;20563;-73
2022/12/31 02:14:16;;;;;;;;;;;;;;;8.93;100.00;100093.25;5067764;28;20378;-73
2022/12/31 02:16:42;;;;;;;;;;;;;;;8.90;100.00;100096.00;5084680;28;20177;-73
2022/12/31 02:19:14;;;;;;;;;;;;;;;8.89;100.00;100083.75;5085589;28;20268;-73
2022/12/31 02:21:45;;;;;;;;;;;;;;;8.87;100.00;100082.97;5067799;28;20059;-73
2022/12/31 02:24:10;;;;;;;;;;;;;;;8.85;100.00;100074.25;5085675;28;20536;-74
2022/12/31 02:26:40;;;;;;;;;;;;;;;8.83;100.00;100067.28;5085038;28;19979;-74
2022/12/31 02:29:24;;;;;;;;;;;;;;;8.80;100.00;100075.38;5066550;28;19920;-73
2022/12/31 02:31:57;;;;;;;;;;;;;;;8.77;100.00;100078.16;5084516;28;20494;-73
2022/12/31 02:34:28;;;;;;;;;;;;;;;8.72;100.00;100066.97;5085086;28;19932;-73
2022/12/31 02:36:54;;;;;;;;;;;;;;;8.69;100.00;100072.41;5085781;28;21609;-75
2022/12/31 02:39:19;;;;;;;;;;;;;;;8.64;100.00;100066.50;5086070;28;19923;-73
2022/12/31 02:41:51;;;;;;;;;;;;;;;8.61;100.00;100070.13;5067251;28;19927;-74
2022/12/31 02:44:21;;;;;;;;;;;;;;;8.56;100.00;100070.38;5066691;28;19924;-74
2022/12/31 02:47:02;;;;;;;;;;;;;;;8.55;100.00;100071.31;5084796;28;19976;-73
2022/12/31 02:49:48;;;;;;;;;;;;;;;8.52;100.00;100071.47;5067107;28;19920;-73
2022/12/31 02:52:27;;;;;;;;;;;;;;;8.50;100.00;100067.16;5084747;28;19924;-73
2022/12/31 02:55:03;;;;;;;;;;;;;;;8.47;100.00;100057.59;5066334;28;20643;-73
2022/12/31 02:57:32;;;;;;;;;;;;;;;8.45;100.00;100056.84;5065462;28;19931;-73
2022/12/31 03:03:09;;;;;;;;;;;;;;;8.42;100.00;100067.53;5033434;28;20416;-74
2022/12/31 03:05:39;;;;;;;;;;;;;;;8.41;100.00;100061.38;5058226;28;19928;-74
2022/12/31 03:08:05;;;;;;;;;;;;;;;8.40;100.00;100059.69;5049895;28;20022;-74
2022/12/31 03:10:30;;;;;;;;;;;;;;;8.42;100.00;100062.25;5066724;28;20488;-73
2022/12/31 03:12:56;;;;;;;;;;;;;;;8.41;100.00;100055.28;5083357;28;19924;-74
2022/12/31 03:15:26;;;;;;;;;;;;;;;8.42;100.00;100067.53;5054270;28;19928;-73
2022/12/31 03:17:53;;;;;;;;;;;;;;;8.42;100.00;100067.53;5065723;28;20105;-73
2022/12/31 03:23:04;;;;;;;;;;;;;;;8.42;100.00;100055.22;5069321;28;21547;-73
2022/12/31 03:25:37;;;;;;;;;;;;;;;8.44;100.00;100055.09;5065607;28;19932;-73
2022/12/31 03:28:07;;;;;;;;;;;;;;;8.44;100.00;100063.03;5084196;28;19974;-73
2022/12/31 03:30:32;;;;;;;;;;;;;;;8.43;100.00;100066.59;5053823;28;19928;-73
2022/12/31 03:32:58;;;;;;;;;;;;;;;8.43;100.00;100062.19;5082016;28;19924;-74
2022/12/31 03:35:24;;;;;;;;;;;;;;;8.41;100.00;100061.38;5066293;28;20042;-74
2022/12/31 03:37:50;;;;;;;;;;;;;;;8.41;100.00;100071.94;5049167;28;19977;-74
2022/12/31 03:40:15;;;;;;;;;;;;;;;8.42;100.00;100078.06;5064688;28;20538;-74
2022/12/31 03:42:41;;;;;;;;;;;;;;;8.41;100.00;100073.75;5066354;28;19924;-74
2022/12/31 03:45:07;;;;;;;;;;;;;;;8.39;100.00;100073.81;5084571;28;19973;-74
2022/12/31 03:47:32;;;;;;;;;;;;;;;8.39;100.00;100072.97;5083798;28;19928;-74
2022/12/31 03:49:57;;;;;;;;;;;;;;;8.38;100.00;100072.09;5065047;28;19979;-74
2022/12/31 03:52:23;;;;;;;;;;;;;;;8.38;100.00;100082.66;5083223;28;20421;-74
2022/12/31 03:54:48;;;;;;;;;;;;;;;8.38;100.00;100076.50;5064548;28;20459;-73
2022/12/31 03:57:14;;;;;;;;;;;;;;;8.37;100.00;100075.66;5064726;28;19940;-74
2022/12/31 03:59:39;;;;;;;;;;;;;;;8.37;100.00;100075.66;5052040;28;19928;-74
2022/12/31 04:02:05;;;;;;;;;;;;;;;8.38;100.00;100081.78;5048155;28;20049;-75
2022/12/31 04:04:32;;;;;;;;;;;;;;;8.38;100.00;100076.50;5064863;28;19931;-74
2022/12/31 04:06:58;;;;;;;;;;;;;;;8.38;100.00;100071.22;5064553;28;19935;-75
2022/12/31 04:09:23;;;;;;;;;;;;;;;8.37;100.00;100069.53;5083398;28;19971;-74
2022/12/31 04:11:49;;;;;;;;;;;;;;;8.35;100.00;100052.94;5069530;28;19935;-74
2022/12/31 04:14:16;;;;;;;;;;;;;;;8.35;100.00;100069.63;5065659;28;19997;-74
2022/12/31 04:16:41;;;;;;;;;;;;;;;8.34;100.00;100064.41;5082926;28;19931;-75
2022/12/31 04:19:07;;;;;;;;;;;;;;;8.35;100.00;100063.47;5082686;28;20489;-74
2022/12/31 04:21:32;;;;;;;;;;;;;;;8.32;100.00;100059.22;5083672;28;19932;-74
2022/12/31 04:23:58;;;;;;;;;;;;;;;8.32;100.00;100046.03;5065630;28;20374;-74
2022/12/31 04:26:23;;;;;;;;;;;;;;;8.31;100.00;100059.28;5083294;28;20481;-74
2022/12/31 04:28:48;;;;;;;;;;;;;;;8.28;100.00;100060.28;5083123;28;19933;-74
2022/12/31 04:31:14;;;;;;;;;;;;;;;8.26;100.00;100063.00;5084258;28;19932;-74
2022/12/31 04:33:39;;;;;;;;;;;;;;;8.26;100.00;100063.00;5064334;28;19932;-74
2022/12/31 04:36:05;;;;;;;;;;;;;;;8.24;100.00;100067.47;5065225;28;20489;-74
2022/12/31 04:38:31;;;;;;;;;;;;;;;8.23;100.00;100063.13;5048063;28;19935;-74
2022/12/31 04:43:41;;;;;;;;;;;;;;;8.21;100.00;100067.63;5067574;28;20574;-74
2022/12/31 04:46:06;;;;;;;;;;;;;;;8.19;100.00;100066.88;5082867;28;19924;-74
2022/12/31 04:48:32;;;;;;;;;;;;;;;8.19;100.00;100076.53;5065523;28;20349;-74
2022/12/31 04:50:58;;;;;;;;;;;;;;;8.17;100.00;100078.41;5082477;28;19949;-74
2022/12/31 04:53:23;;;;;;;;;;;;;;;8.13;100.00;100081.19;5056683;28;20030;-74
2022/12/31 04:55:49;;;;;;;;;;;;;;;8.11;100.00;100084.81;5069068;28;21558;-74
2022/12/31 04:58:14;;;;;;;;;;;;;;;8.09;100.00;100081.41;5052339;28;19932;-74
2022/12/31 05:00:40;;;;;;;;;;;;;;;8.07;100.00;100070.09;5069603;28;19932;-74
2022/12/31 05:03:05;;;;;;;;;;;;;;;8.07;100.00;100054.25;5069149;28;21182;-74
2022/12/31 05:05:31;;;;;;;;;;;;;;;8.05;100.00;100048.22;5087368;28;19932;-74
2022/12/31 05:07:56;;;;;;;;;;;;;;;8.05;100.00;100045.59;5068847;28;21656;-73
2022/12/31 05:10:22;;;;;;;;;;;;;;;8.05;100.00;100048.22;5086792;28;19931;-74
2022/12/31 05:12:47;;;;;;;;;;;;;;;8.05;100.00;100062.25;5087036;28;19936;-74
2022/12/31 05:15:13;;;;;;;;;;;;;;;8.06;100.00;100055.19;5086991;28;19932;-74
2022/12/31 05:17:38;;;;;;;;;;;;;;;8.07;100.00;100063.00;5087381;28;19927;-75
2022/12/31 05:20:04;;;;;;;;;;;;;;;8.07;100.00;100049.81;5068910;28;19924;-75
2022/12/31 05:22:29;;;;;;;;;;;;;;;8.11;100.00;100063.72;5068414;28;19935;-75
2022/12/31 05:24:55;;;;;;;;;;;;;;;8.15;100.00;100066.16;5068777;28;20364;-75
2022/12/31 05:27:21;;;;;;;;;;;;;;;8.19;100.00;100066.88;5086995;28;19927;-74
2022/12/31 05:29:46;;;;;;;;;;;;;;;8.23;100.00;100076.31;5068628;28;19928;-75
2022/12/31 05:32:12;;;;;;;;;;;;;;;8.27;100.00;100074.38;5072826;28;19928;-75
2022/12/31 05:34:37;;;;;;;;;;;;;;;8.31;100.00;100090.91;5072694;28;19928;-75
2022/12/31 05:37:03;;;;;;;;;;;;;;;8.34;100.00;100106.63;5084020;28;20027;-75
2022/12/31 05:39:28;;;;;;;;;;;;;;;8.34;100.00;100107.44;5087081;28;20426;-75
2022/12/31 05:41:53;;;;;;;;;;;;;;;8.36;100.00;100115.31;5085159;28;20022;-75
2022/12/31 05:44:19;;;;;;;;;;;;;;;8.35;100.00;100114.47;5086675;28;19927;-76
2022/12/31 05:46:46;;;;;;;;;;;;;;;8.34;100.00;100114.53;5067809;28;19927;-75
2022/12/31 05:49:11;;;;;;;;;;;;;;;8.33;100.00;100110.19;5085988;28;19932;-76
2022/12/31 05:51:36;;;;;;;;;;;;;;;8.32;100.00;100103.22;5056147;28;19964;-74
2022/12/31 05:54:02;;;;;;;;;;;;;;;8.32;100.00;100113.75;5086186;28;19944;-75
2022/12/31 05:56:27;;;;;;;;;;;;;;;8.31;100.00;100112.88;5067567;28;20016;-74
2022/12/31 05:58:53;;;;;;;;;;;;;;;8.30;100.00;100111.19;5085066;28;19920;-75
2022/12/31 06:01:18;;;;;;;;;;;;;;;8.31;100.00;100122.56;5085511;28;19951;-76
2022/12/31 06:03:44;;;;;;;;;;;;;;;8.31;100.00;100123.44;5085914;28;19924;-76
2022/12/31 06:06:09;;;;;;;;;;;;;;;8.32;100.00;100124.31;5085669;28;19924;-76
2022/12/31 06:08:35;;;;;;;;;;;;;;;8.32;100.00;100116.41;5085858;28;20295;-76
2022/12/31 06:11:00;;;;;;;;;;;;;;;8.31;100.00;100112.88;5085829;28;19927;-76
2022/12/31 06:13:26;;;;;;;;;;;;;;;8.29;100.00;100112.94;5067168;28;19958;-76
2022/12/31 06:15:51;;;;;;;;;;;;;;;8.28;100.00;100119.16;5084972;28;19931;-76
2022/12/31 06:18:17;;;;;;;;;;;;;;;8.27;100.00;100117.44;5084487;28;19938;-75
2022/12/31 06:20:42;;;;;;;;;;;;;;;8.24;100.00;100114.94;5086208;28;19942;-76
2022/12/31 06:23:07;;;;;;;;;;;;;;;8.23;100.00;100113.25;5067745;28;21593;-75
2022/12/31 06:25:33;;;;;;;;;;;;;;;8.24;100.00;100106.19;5050362;28;19943;-76
2022/12/31 06:27:59;;;;;;;;;;;;;;;8.23;100.00;100104.50;5067622;28;20408;-76
2022/12/31 06:30:26;;;;;;;;;;;;;;;8.22;100.00;100108.06;5067422;28;19928;-76
2022/12/31 06:32:52;;;;;;;;;;;;;;;8.21;100.00;100106.31;5054784;28;20298;-76
2022/12/31 06:35:17;;;;;;;;;;;;;;;8.18;100.00;100099.44;5066385;28;20529;-75
2022/12/31 06:37:43;;;;;;;;;;;;;;;8.16;100.00;100093.38;5084904;28;19927;-76
2022/12/31 06:40:08;;;;;;;;;;;;;;;8.15;100.00;100112.75;5066962;28;19924;-75
2022/12/31 06:42:34;;;;;;;;;;;;;;;8.12;100.00;100116.38;5066587;28;20294;-75
2022/12/31 06:44:59;;;;;;;;;;;;;;;8.11;100.00;100105.91;5062018;28;19943;-76
2022/12/31 06:47:25;;;;;;;;;;;;;;;8.10;100.00;100099.78;5085680;28;19924;-75
2022/12/31 06:49:51;;;;;;;;;;;;;;;8.06;100.00;100102.66;5084349;28;20023;-76
2022/12/31 06:52:16;;;;;;;;;;;;;;;8.06;100.00;100102.66;5084980;28;20045;-76
2022/12/31 06:54:41;;;;;;;;;;;;;;;8.02;100.00;100100.13;5066094;28;20455;-76
2022/12/31 06:57:07;;;;;;;;;;;;;;;8.00;100.00;100116.94;5067201;28;20082;-76
2022/12/31 06:59:33;;;;;;;;;;;;;;;7.97;100.00;100107.44;5084909;28;19924;-76
2022/12/31 07:02:34;;;;;;;;;;;;;;;7.97;100.00;100103.94;5065495;28;19932;-76
2022/12/31 07:05:17;;;;;;;;;;;;;;;7.95;100.00;100090.81;5021962;28;19920;-76
2022/12/31 07:07:45;;;;;;;;;;;;;;;7.96;100.00;100102.22;5079145;28;20471;-76
2022/12/31 07:10:22;;;;;;;;;;;;;;;7.95;100.00;100069.72;5084497;28;20233;-76
2022/12/31 07:13:17;;;;;;;;;;;;;;;7.96;100.00;100076.69;5065714;28;19923;-76
2022/12/31 07:15:52;;;;;;;;;;;;;;;7.98;100.00;100088.03;5048801;28;19932;-76
2022/12/31 07:18:23;;;;;;;;;;;;;;;7.99;100.00;100110.84;5084620;28;19928;-76
2022/12/31 07:20:48;;;;;;;;;;;;;;;8.00;100.00;100120.47;5066713;28;19938;-76
2022/12/31 07:23:14;;;;;;;;;;;;;;;8.01;100.00;100089.69;5067098;28;19928;-76
2022/12/31 07:25:40;;;;;;;;;;;;;;;8.04;100.00;100088.66;5049808;28;20691;-76
2022/12/31 07:28:08;;;;;;;;;;;;;;;8.06;100.00;100084.19;5065500;28;19935;-76
2022/12/31 07:30:40;;;;;;;;;;;;;;;8.07;100.00;100094.66;5083655;28;19935;-76
2022/12/31 07:33:27;;;;;;;;;;;;;;;8.10;100.00;100118.25;5083919;28;19932;-76
2022/12/31 07:35:55;;;;;;;;;;;;;;;8.12;100.00;100100.56;5084363;28;19927;-76
2022/12/31 07:38:36;;;;;;;;;;;;;;;8.14;100.00;100089.97;5083243;28;19942;-76
2022/12/31 07:41:13;;;;;;;;;;;;;;;8.15;100.00;100083.75;5066527;28;19969;-76
2022/12/31 07:43:43;;;;;;;;;;;;;;;8.17;100.00;100084.53;5065391;28;19928;-76
2022/12/31 07:46:09;;;;;;;;;;;;;;;8.19;100.00;100087.09;5048031;28;20318;-76
2022/12/31 07:48:34;;;;;;;;;;;;;;;8.22;100.00;100082.53;5084123;28;19927;-76
2022/12/31 07:51:00;;;;;;;;;;;;;;;8.24;100.00;100077.19;5065584;28;19975;-76
2022/12/31 07:53:25;;;;;;;;;;;;;;;8.26;100.00;100072.69;5048174;28;19979;-76
2022/12/31 07:55:53;;;;;;;;;;;;;;;8.30;100.00;100061.06;5052112;28;19932;-75
2022/12/31 07:58:20;;;;;;;;;;;;;;;8.32;100.00;100064.47;5066434;28;20244;-76
2022/12/31 08:00:45;;;;;;;;;;;;;;;8.35;100.00;100067.00;5066441;28;20653;-76
2022/12/31 08:03:17;;;;;;;;;;;;;;;8.38;100.00;100058.03;5065990;28;19932;-76
2022/12/31 08:06:01;;;;;;;;;;;;;;;8.41;100.00;100055.28;5083404;28;20005;-76
2022/12/31 08:08:39;;;;;;;;;;;;;;;8.49;100.00;100071.56;5069747;28;19928;-75
2022/12/31 08:11:23;;;;;;;;;;;;;;;8.56;100.00;100049.25;5084648;28;19946;-76
2022/12/31 08:13:51;;;;;;;;;;;;;;;8.64;100.00;100048.88;5083222;28;19927;-76
2022/12/31 08:16:17;;;;;;;;;;;;;;;8.74;100.00;100056.34;5051086;28;20038;-76
2022/12/31 08:18:42;;;;;;;;;;;;;;;8.82;100.00;100057.66;5065964;28;20302;-75
2022/12/31 08:21:08;;;;;;;;;;;;;;;8.89;100.00;100057.34;5065915;28;19967;-75
2022/12/31 08:23:33;;;;;;;;;;;;;;;8.95;100.00;100044.69;5066248;28;19994;-76
2022/12/31 08:25:58;;;;;;;;;;;;;;;9.01;100.00;100027.69;5049109;28;19946;-75
2022/12/31 08:28:28;;;;;;;;;;;;;;;9.07;100.00;100035.28;5073763;28;19931;-76
2022/12/31 08:31:00;;;;;;;;;;;;;;;9.15;100.00;100042.78;5069628;28;20035;-76
2022/12/31 08:33:47;;;;;;;;;;;;;;;9.21;100.00;100060.13;5069349;28;19936;-75
2022/12/31 08:36:16;;;;;;;;;;;;;;;9.25;100.00;100074.88;5069566;28;20699;-76
2022/12/31 08:38:44;;;;;;;;;;;;;;;9.30;100.00;100070.19;5087509;28;19928;-76
2022/12/31 08:41:19;;;;;;;;;;;;;;;9.36;100.00;100083.09;5086764;28;19928;-75
2022/12/31 08:44:03;;;;;;;;;;;;;;;9.42;100.00;100083.72;5087392;28;19943;-75
2022/12/31 08:46:44;;;;;;;;;;;;;;;9.45;100.00;100072.97;5088288;28;19932;-76
2022/12/31 08:49:10;;;;;;;;;;;;;;;9.49;100.00;100069.22;5086833;28;20340;-75
2022/12/31 08:51:35;;;;;;;;;;;;;;;9.53;100.00;100070.75;5087957;28;19928;-75
2022/12/31 08:54:01;;;;;;;;;;;;;;;9.56;100.00;100075.03;5069340;28;19924;-76
2022/12/31 08:56:28;;;;;;;;;;;;;;;9.58;100.00;100071.38;5068411;28;19930;-75
2022/12/31 08:58:53;;;;;;;;;;;;;;;9.60;100.00;100076.59;5068825;28;19927;-75
2022/12/31 09:01:20;;;;;;;;;;;;;;;9.60;100.00;100077.41;5058168;28;20264;-75
2022/12/31 09:03:49;;;;;;;;;;;;;;;9.61;100.00;100079.16;5069343;28;20172;-75
2022/12/31 09:06:26;;;;;;;;;;;;;;;9.63;100.00;100077.28;5068835;28;19955;-75
2022/12/31 09:09:07;;;;;;;;;;;;;;;9.63;100.00;100066.69;5086943;28;20121;-75
2022/12/31 09:11:47;;;;;;;;;;;;;;;9.62;100.00;100070.28;5087394;28;19923;-76
2022/12/31 09:14:12;;;;;;;;;;;;;;;9.62;100.00;100069.41;5067497;28;20013;-76
2022/12/31 09:16:41;;;;;;;;;;;;;;;9.62;100.00;100086.13;5087234;28;20007;-75
2022/12/31 09:19:07;;;;;;;;;;;;;;;9.61;100.00;100073.88;5067455;28;20333;-75
2022/12/31 09:21:33;;;;;;;;;;;;;;;9.61;100.00;100078.28;5068462;28;19928;-75
2022/12/31 09:23:58;;;;;;;;;;;;;;;9.59;100.00;100086.28;5067528;28;19992;-75
2022/12/31 09:26:33;;;;;;;;;;;;;;;9.58;100.00;100089.88;5069009;28;19935;-75
2022/12/31 09:29:01;;;;;;;;;;;;;;;9.59;100.00;100096.84;5086457;28;19981;-75
2022/12/31 09:31:35;;;;;;;;;;;;;;;9.62;100.00;100102.00;5067741;28;20022;-75
2022/12/31 09:34:11;;;;;;;;;;;;;;;9.64;100.00;100115.09;5067516;28;19924;-75
2022/12/31 09:36:44;;;;;;;;;;;;;;;9.65;100.00;100117.69;5068802;28;20652;-75
2022/12/31 09:39:32;;;;;;;;;;;;;;;9.67;100.00;100124.66;5067681;28;20064;-75
2022/12/31 09:42:16;;;;;;;;;;;;;;;9.69;100.00;100117.53;5074023;28;20317;-75
2022/12/31 09:44:47;;;;;;;;;;;;;;;9.69;100.00;100125.47;5067122;28;19924;-75
2022/12/31 09:47:28;;;;;;;;;;;;;;;9.73;100.00;100119.91;5085660;28;19937;-75
2022/12/31 09:50:14;;;;;;;;;;;;;;;9.78;100.00;100123.19;5067276;28;19928;-75
2022/12/31 09:52:46;;;;;;;;;;;;;;;9.81;100.00;100132.72;5086706;28;19924;-75
2022/12/31 09:55:11;;;;;;;;;;;;;;;9.84;100.00;100124.63;5086166;28;21677;-75
2022/12/31 09:57:40;;;;;;;;;;;;;;;9.88;100.00;100136.75;5085736;28;19928;-75
2022/12/31 10:00:15;;;;;;;;;;;;;;;9.94;100.00;100135.56;5039027;28;19930;-75
2022/12/31 10:02:59;;;;;;;;;;;;;;;10.02;100.00;100127.22;5067959;28;20394;-75
2022/12/31 10:05:31;;;;;;;;;;;;;;;10.09;100.00;100125.94;5086214;28;20739;-75
2022/12/31 10:08:04;;;;;;;;;;;;;;;10.14;100.00;100126.53;5068404;28;19924;-75
2022/12/31 10:10:30;;;;;;;;;;;;;;;10.22;100.00;100130.53;5086359;28;20352;-75
2022/12/31 10:12:55;;;;;;;;;;;;;;;10.28;100.00;100143.44;5048763;28;20025;-75
2022/12/31 10:15:30;;;;;;;;;;;;;;;10.38;100.00;100147.28;5085877;28;19947;-75
2022/12/31 10:18:16;;;;;;;;;;;;;;;10.45;100.00;100153.09;5066634;28;19927;-75
2022/12/31 10:20:46;;;;;;;;;;;;;;;10.53;100.00;100150.03;5085651;28;20276;-76
2022/12/31 10:23:27;;;;;;;;;;;;;;;10.56;100.00;100147.22;5051063;28;19928;-74
2022/12/31 10:26:11;;;;;;;;;;;;;;;10.59;100.00;100152.34;5085935;28;20030;-75
2022/12/31 10:28:40;;;;;;;;;;;;;;;10.62;100.00;100154.81;5071382;28;19927;-75
2022/12/31 10:31:15;;;;;;;;;;;;;;;10.66;100.00;100166.06;5067607;28;20481;-75
2022/12/31 10:33:49;;;;;;;;;;;;;;;10.69;100.00;100155.31;5067525;28;19928;-75
2022/12/31 10:36:15;;;;;;;;;;;;;;;10.73;100.00;100162.13;5054713;28;19934;-75
2022/12/31 10:38:52;;;;;;;;;;;;;;;10.77;100.00;100153.09;5066406;28;20298;-75
2022/12/31 10:41:36;;;;;;;;;;;;;;;10.81;100.00;100138.75;5067241;28;20505;-76
2022/12/31 10:44:07;;;;;;;;;;;;;;;10.86;100.00;100157.84;5084535;28;20022;-75
2022/12/31 10:46:52;;;;;;;;;;;;;;;10.89;100.00;100156.81;5085629;28;19975;-76
2022/12/31 10:49:20;;;;;;;;;;;;;;;10.90;100.00;100155.88;5084493;28;19982;-75
2022/12/31 10:52:05;;;;;;;;;;;;;;;10.91;100.00;100146.13;5050527;28;19974;-75
2022/12/31 10:54:48;;;;;;;;;;;;;;;10.90;100.00;100134.69;5084384;28;20053;-75
2022/12/31 10:57:34;;;;;;;;;;;;;;;10.91;100.00;100147.00;5083615;28;21445;-76
2022/12/31 11:00:06;;;;;;;;;;;;;;;10.94;100.00;100148.59;5049810;28;19953;-74
2022/12/31 11:02:41;;;;;;;;;;;;;;;10.97;100.00;100154.59;5070850;28;19924;-74
2022/12/31 11:05:11;;;;;;;;;;;;;;;11.00;100.00;100161.47;5084784;28;19931;-73
2022/12/31 11:07:40;;;;;;;;;;;;;;;11.03;100.00;100139.25;5066805;28;20339;-74
2022/12/31 11:10:11;;;;;;;;;;;;;;;11.07;100.00;100156.69;5065594;28;20009;-75
2022/12/31 11:13:05;;;;;;;;;;;;;;;11.08;100.00;100163.69;5068946;28;19985;-74
2022/12/31 11:15:43;;;;;;;;;;;;;;;11.12;100.00;100167.88;5066290;28;20328;-73
2022/12/31 11:18:15;;;;;;;;;;;;;;;11.13;100.00;100170.41;5085107;28;19928;-74
2022/12/31 11:21:01;;;;;;;;;;;;;;;11.15;100.00;100173.00;5084705;28;19973;-73
2022/12/31 11:23:46;;;;;;;;;;;;;;;11.17;100.00;100165.78;5084882;28;19945;-73
2022/12/31 11:26:28;;;;;;;;;;;;;;;11.21;100.00;100177.94;5084835;28;19934;-74
2022/12/31 11:28:57;;;;;;;;;;;;;;;11.26;100.00;100182.97;5064861;28;19974;-73
2022/12/31 11:31:41;;;;;;;;;;;;;;;11.29;100.00;100164.25;5049574;28;19928;-75
2022/12/31 11:34:09;;;;;;;;;;;;;;;11.31;100.00;100172.06;5084833;28;19928;-74
2022/12/31 11:36:38;;;;;;;;;;;;;;;11.33;100.00;100159.63;5084621;28;19923;-74
2022/12/31 11:39:23;;;;;;;;;;;;;;;11.35;100.00;100178.91;5083799;28;19924;-75
2022/12/31 11:41:49;;;;;;;;;;;;;;;11.35;100.00;100174.47;5083198;28;19936;-75
2022/12/31 11:44:23;;;;;;;;;;;;;;;11.38;100.00;100158.38;5053200;28;19927;-75
2022/12/31 11:46:58;;;;;;;;;;;;;;;11.38;100.00;100174.28;5083073;28;19928;-75
2022/12/31 11:49:33;;;;;;;;;;;;;;;11.39;100.00;100172.50;5084862;28;19958;-75
2022/12/31 11:52:07;;;;;;;;;;;;;;;11.37;100.00;100159.34;5084444;28;19924;-76
2022/12/31 11:54:51;;;;;;;;;;;;;;;11.36;100.00;100167.38;5083038;28;19935;-75
2022/12/31 11:57:30;;;;;;;;;;;;;;;11.35;100.00;100171.81;5082777;28;19924;-75
2022/12/31 11:59:56;;;;;;;;;;;;;;;11.35;100.00;100179.78;5064669;28;20393;-75
2022/12/31 12:02:24;;;;;;;;;;;;;;;11.34;100.00;100166.63;5064322;28;20426;-75
2022/12/31 12:04:52;;;;;;;;;;;;;;;11.31;100.00;100177.38;5053162;28;20065;-76
2022/12/31 12:07:17;;;;;;;;;;;;;;;11.30;100.00;100165.06;5065831;28;20026;-76
2022/12/31 12:09:43;;;;;;;;;;;;;;;11.27;100.00;100174.94;5065615;28;20016;-75
2022/12/31 12:12:08;;;;;;;;;;;;;;;11.25;100.00;100147.69;5084101;28;20042;-75
2022/12/31 12:14:37;;;;;;;;;;;;;;;11.24;100.00;100168.94;5084026;28;20310;-75
2022/12/31 12:17:06;;;;;;;;;;;;;;;11.21;100.00;100150.56;5083347;28;19955;-75
2022/12/31 12:19:32;;;;;;;;;;;;;;;11.19;100.00;100155.97;5065467;28;20043;-75
2022/12/31 12:21:58;;;;;;;;;;;;;;;11.18;100.00;100156.06;5053421;28;19990;-75
2022/12/31 12:24:24;;;;;;;;;;;;;;;11.14;100.00;100148.31;5065570;28;20438;-77
2022/12/31 12:26:50;;;;;;;;;;;;;;;11.13;100.00;100157.19;5083303;28;19973;-75
2022/12/31 12:29:16;;;;;;;;;;;;;;;11.10;100.00;100172.41;5065594;28;19931;-75
2022/12/31 12:31:41;;;;;;;;;;;;;;;11.08;100.00;100185.75;5083963;28;19928;-75
2022/12/31 12:34:20;;;;;;;;;;;;;;;11.07;100.00;100180.53;5048782;28;20279;-76
2022/12/31 12:36:46;;;;;;;;;;;;;;;11.06;100.00;100179.66;5083769;28;20023;-75
2022/12/31 12:39:18;;;;;;;;;;;;;;;11.07;100.00;100172.59;5065716;28;19928;-75
2022/12/31 12:41:43;;;;;;;;;;;;;;;11.09;100.00;100181.28;5048864;28;20382;-75
2022/12/31 12:44:13;;;;;;;;;;;;;;;11.08;100.00;100182.25;5071426;28;19939;-75
2022/12/31 12:46:48;;;;;;;;;;;;;;;11.06;100.00;100190.28;5082614;28;19996;-75
2022/12/31 12:49:24;;;;;;;;;;;;;;;11.07;100.00;100191.13;5064035;28;20465;-75
2022/12/31 12:51:57;;;;;;;;;;;;;;;11.06;100.00;100178.84;5065189;28;19977;-75
2022/12/31 12:54:35;;;;;;;;;;;;;;;11.05;100.00;100183.28;5065233;28;19934;-74
2022/12/31 12:57:10;;;;;;;;;;;;;;;11.05;100.00;100195.69;5082926;28;19923;-75